Time;durP1;ratioP1;P1;durP2;ratioP2;P2;SDS_P1;SDS_P2;PMS_P1;PMS_P2;Temp;Humidity;BMP_temperature;BMP_pressure;BME280_temperature;BME280_humidity;BME280_pressure;Samples;Min_cycle;Max_cycle;Signal;HPM_P1;HPM_P2
2023/12/30 00:00:20;;;;;;;1.58;1.38;;;10.10;99.90;;;;;;5094237;28;20232;-86
2023/12/30 00:02:48;;;;;;;1.80;1.40;;;10.10;99.90;;;;;;5092487;28;20235;-85
2023/12/30 00:05:15;;;;;;;1.17;1.08;;;10.10;99.90;;;;;;5094799;28;20261;-85
2023/12/30 00:07:42;;;;;;;1.13;1.02;;;10.20;99.90;;;;;;5095414;28;20223;-78
2023/12/30 00:10:09;;;;;;;1.00;0.90;;;10.20;99.90;;;;;;5093797;28;20212;-78
2023/12/30 00:12:36;;;;;;;1.30;1.20;;;10.20;99.90;;;;;;5093285;28;20251;-79
2023/12/30 00:15:04;;;;;;;1.05;0.95;;;10.20;99.90;;;;;;5094338;28;20550;-78
2023/12/30 00:17:32;;;;;;;1.10;1.10;;;10.20;99.90;;;;;;5097325;28;20699;-78
2023/12/30 00:20:00;;;;;;;2.10;1.17;;;10.30;99.90;;;;;;5094340;28;20223;-85
2023/12/30 00:22:27;;;;;;;1.15;1.05;;;10.30;99.90;;;;;;5094272;28;20237;-85
2023/12/30 00:24:54;;;;;;;1.98;1.77;;;10.30;99.90;;;;;;5083743;28;20231;-78
2023/12/30 00:27:21;;;;;;;1.35;1.10;;;10.30;99.90;;;;;;5093467;28;20290;-86
2023/12/30 00:29:49;;;;;;;1.80;1.50;;;10.40;99.90;;;;;;5093812;28;20230;-85
2023/12/30 00:32:16;;;;;;;1.50;1.40;;;10.40;99.90;;;;;;5092795;28;20423;-79
2023/12/30 00:34:45;;;;;;;1.42;1.30;;;10.40;99.90;;;;;;5094004;28;20223;-78
2023/12/30 00:37:13;;;;;;;1.63;1.23;;;10.40;99.90;;;;;;5093750;28;20219;-85
2023/12/30 00:39:41;;;;;;;1.10;1.00;;;10.40;99.90;;;;;;5092425;28;20219;-85
2023/12/30 00:42:08;;;;;;;1.15;1.05;;;10.40;99.90;;;;;;5083677;28;20251;-78
2023/12/30 00:44:35;;;;;;;2.88;0.93;;;10.40;99.90;;;;;;5093616;28;20580;-78
2023/12/30 00:47:06;;;;;;;1.42;0.98;;;10.40;99.90;;;;;;5096159;28;20227;-85
2023/12/30 00:49:36;;;;;;;1.17;1.08;;;10.40;99.90;;;;;;5093357;28;20227;-78
2023/12/30 00:52:05;;;;;;;1.88;1.00;;;10.40;99.90;;;;;;5093278;28;20291;-78
2023/12/30 00:54:32;;;;;;;1.02;0.95;;;10.40;99.90;;;;;;5093879;28;20223;-78
2023/12/30 00:56:59;;;;;;;2.17;1.45;;;10.40;99.90;;;;;;5093266;28;20615;-78
2023/12/30 00:59:26;;;;;;;2.35;1.00;;;10.40;99.90;;;;;;5091970;28;20254;-85
2023/12/30 01:01:53;;;;;;;0.95;0.80;;;10.40;99.90;;;;;;5097387;28;20633;-85
2023/12/30 01:04:20;;;;;;;1.73;1.00;;;10.40;99.90;;;;;;5106608;28;20234;-85
2023/12/30 01:06:51;;;;;;;1.05;0.93;;;10.50;99.90;;;;;;5093592;28;20223;-78
2023/12/30 01:09:19;;;;;;;0.80;0.80;;;10.40;99.90;;;;;;5093435;28;20677;-85
2023/12/30 01:11:46;;;;;;;1.45;1.35;;;10.40;99.90;;;;;;5092014;28;20227;-85
2023/12/30 01:14:14;;;;;;;2.13;1.73;;;10.50;99.90;;;;;;5095980;28;20681;-78
2023/12/30 01:16:41;;;;;;;1.30;1.20;;;10.40;99.90;;;;;;5097481;28;20615;-85
2023/12/30 01:19:08;;;;;;;3.00;2.70;;;10.40;99.90;;;;;;5097699;28;20223;-86
2023/12/30 01:21:35;;;;;;;3.53;2.40;;;10.40;99.90;;;;;;5097207;28;20409;-86
2023/12/30 01:24:02;;;;;;;2.72;1.50;;;10.40;99.90;;;;;;5097465;28;20691;-85
2023/12/30 01:26:31;;;;;;;4.20;1.20;;;10.40;99.90;;;;;;5097963;28;20227;-85
2023/12/30 01:28:58;;;;;;;1.40;1.30;;;10.40;99.90;;;;;;5097028;28;20223;-78
2023/12/30 01:31:35;;;;;;;1.38;1.27;;;10.30;99.90;;;;;;5097624;28;20566;-86
2023/12/30 01:34:02;;;;;;;1.83;1.73;;;10.40;99.90;;;;;;5097525;28;20280;-86
2023/12/30 01:36:42;;;;;;;1.42;1.33;;;10.30;99.90;;;;;;5096550;28;20230;-86
2023/12/30 01:39:09;;;;;;;1.00;0.90;;;10.40;99.90;;;;;;5096904;28;20215;-85
2023/12/30 01:41:38;;;;;;;2.35;1.40;;;10.40;99.90;;;;;;5097541;28;20290;-85
2023/12/30 01:44:05;;;;;;;3.15;0.93;;;10.40;99.90;;;;;;5097181;28;20223;-86
2023/12/30 01:46:32;;;;;;;4.07;1.17;;;10.40;99.90;;;;;;5096815;28;20560;-85
2023/12/30 01:49:01;;;;;;;2.38;2.03;;;10.40;99.90;;;;;;5097470;28;20238;-85
2023/12/30 01:51:29;;;;;;;2.25;1.77;;;10.30;99.90;;;;;;5097066;28;20251;-85
2023/12/30 01:53:58;;;;;;;1.45;1.35;;;10.30;99.90;;;;;;5097457;28;20231;-86
2023/12/30 01:56:26;;;;;;;2.40;1.75;;;10.30;99.90;;;;;;5096701;28;20288;-78
2023/12/30 01:58:56;;;;;;;2.10;1.90;;;10.30;99.90;;;;;;5096927;28;20219;-78
2023/12/30 02:01:27;;;;;;;1.42;1.30;;;10.30;99.90;;;;;;5096662;28;20257;-86
2023/12/30 02:03:54;;;;;;;1.65;1.15;;;10.30;99.90;;;;;;5096703;28;20609;-78
2023/12/30 02:06:21;;;;;;;1.30;1.20;;;10.30;99.90;;;;;;5085973;28;20298;-85
2023/12/30 02:09:18;;;;;;;1.23;1.00;;;10.30;99.90;;;;;;5097428;28;20223;-86
2023/12/30 02:11:45;;;;;;;1.42;1.27;;;10.20;99.90;;;;;;5075509;28;20199;-85
2023/12/30 02:14:28;;;;;;;1.00;0.90;;;10.20;99.90;;;;;;5101301;28;20239;-86
2023/12/30 02:16:55;;;;;;;5.40;3.75;;;10.30;99.90;;;;;;5099680;28;20215;-79
2023/12/30 02:19:22;;;;;;;4.32;3.75;;;10.20;99.90;;;;;;5096532;28;20246;-78
2023/12/30 02:21:50;;;;;;;4.85;3.33;;;10.20;99.90;;;;;;5096649;28;20234;-85
2023/12/30 02:24:23;;;;;;;3.72;2.85;;;10.30;99.90;;;;;;5096008;28;20296;-78
2023/12/30 02:26:50;;;;;;;3.08;2.78;;;10.20;99.90;;;;;;5094500;28;20302;-78
2023/12/30 02:29:18;;;;;;;3.58;2.30;;;10.30;99.90;;;;;;5096441;28;20223;-78
2023/12/30 02:31:47;;;;;;;3.58;1.85;;;10.20;99.90;;;;;;5095702;28;20216;-86
2023/12/30 02:34:15;;;;;;;4.50;1.50;;;10.30;99.90;;;;;;5096013;28;20228;-86
2023/12/30 02:36:47;;;;;;;1.50;1.30;;;10.30;99.90;;;;;;5084787;28;20253;-78
2023/12/30 02:39:14;;;;;;;4.55;1.50;;;10.30;99.90;;;;;;5095539;28;20705;-86
2023/12/30 02:41:43;;;;;;;1.60;1.48;;;10.40;99.90;;;;;;5095305;28;20215;-79
2023/12/30 02:44:09;;;;;;;1.95;1.23;;;10.40;99.90;;;;;;5085544;28;20630;-78
2023/12/30 02:46:36;;;;;;;1.58;1.08;;;10.40;99.90;;;;;;5095291;28;20255;-79
2023/12/30 02:49:04;;;;;;;1.30;1.20;;;10.40;99.90;;;;;;5096052;28;20237;-78
2023/12/30 02:51:32;;;;;;;2.00;1.50;;;10.40;99.90;;;;;;5094981;28;20302;-86
2023/12/30 02:54:01;;;;;;;3.03;1.48;;;10.40;99.90;;;;;;5095678;28;20247;-77
2023/12/30 02:56:28;;;;;;;2.30;1.40;;;10.40;99.90;;;;;;5094824;28;20231;-79
2023/12/30 02:58:58;;;;;;;4.60;2.00;;;10.30;99.90;;;;;;5095741;28;20220;-86
2023/12/30 03:01:27;;;;;;;3.45;1.90;;;10.30;99.90;;;;;;5095314;28;20219;-86
2023/12/30 03:03:55;;;;;;;1.80;1.63;;;10.30;99.90;;;;;;5096106;28;20624;-86
2023/12/30 03:06:22;;;;;;;2.03;0.93;;;10.30;99.90;;;;;;5095104;28;20224;-80
2023/12/30 03:08:50;;;;;;;3.42;2.15;;;10.20;99.90;;;;;;5095141;28;20226;-79
2023/12/30 03:11:17;;;;;;;1.52;1.00;;;10.20;99.90;;;;;;5095319;28;20220;-79
2023/12/30 03:13:45;;;;;;;1.77;1.38;;;10.20;99.90;;;;;;5094608;28;20231;-79
2023/12/30 03:16:16;;;;;;;1.95;1.10;;;10.20;99.90;;;;;;5095214;28;20280;-78
2023/12/30 03:18:44;;;;;;;2.38;1.30;;;10.20;99.90;;;;;;5094458;28;20230;-78
2023/12/30 03:21:13;;;;;;;2.08;1.10;;;10.20;99.90;;;;;;5095123;28;20228;-78
2023/12/30 03:23:40;;;;;;;3.63;1.10;;;10.20;99.90;;;;;;5093919;28;20607;-86
2023/12/30 03:26:09;;;;;;;3.38;1.10;;;10.20;99.90;;;;;;5094460;28;20242;-86
2023/12/30 03:28:36;;;;;;;2.78;2.05;;;10.20;99.90;;;;;;5094573;28;20227;-78
2023/12/30 03:31:04;;;;;;;1.92;1.35;;;10.10;99.90;;;;;;5095085;28;20302;-86
2023/12/30 03:33:32;;;;;;;1.90;1.30;;;10.10;99.90;;;;;;5093650;28;20238;-78
2023/12/30 03:35:59;;;;;;;3.47;1.50;;;10.10;99.90;;;;;;5094217;28;20215;-78
2023/12/30 03:38:27;;;;;;;2.58;1.00;;;10.10;99.90;;;;;;5094258;28;20252;-77
2023/12/30 03:40:54;;;;;;;1.10;1.00;;;10.10;99.90;;;;;;5095453;28;20227;-85
2023/12/30 03:43:21;;;;;;;1.23;1.00;;;10.10;99.90;;;;;;5095318;28;20669;-85
2023/12/30 03:45:48;;;;;;;2.78;1.10;;;10.10;99.90;;;;;;5094126;28;20231;-78
2023/12/30 03:48:15;;;;;;;0.80;0.80;;;10.10;99.90;;;;;;5094585;28;20684;-78
2023/12/30 03:50:46;;;;;;;1.73;1.20;;;10.10;99.90;;;;;;5093822;28;20246;-78
2023/12/30 03:53:16;;;;;;;1.10;0.85;;;10.10;99.90;;;;;;5094450;28;20319;-80
2023/12/30 03:55:43;;;;;;;2.80;0.80;;;10.10;99.90;;;;;;5094252;28;20307;-79
2023/12/30 03:58:10;;;;;;;1.95;1.15;;;10.00;99.90;;;;;;5094426;28;20219;-79
2023/12/30 04:00:37;;;;;;;1.23;1.13;;;10.00;99.90;;;;;;5093790;28;20604;-80
2023/12/30 04:03:04;;;;;;;0.90;0.90;;;10.00;99.90;;;;;;5094232;28;20229;-79
2023/12/30 04:05:32;;;;;;;2.65;0.90;;;10.00;99.90;;;;;;5093598;28;20223;-80
2023/12/30 04:08:00;;;;;;;5.78;1.77;;;10.00;99.90;;;;;;5094313;28;20699;-86
2023/12/30 04:10:27;;;;;;;1.50;1.00;;;10.00;99.90;;;;;;5093828;28;20681;-86
2023/12/30 04:12:54;;;;;;;1.95;1.10;;;10.00;99.90;;;;;;5094076;28;20246;-85
2023/12/30 04:15:22;;;;;;;1.23;1.02;;;10.00;99.90;;;;;;5094611;28;20567;-85
2023/12/30 04:17:49;;;;;;;1.20;0.77;;;10.00;99.90;;;;;;5093957;28;20220;-78
2023/12/30 04:20:16;;;;;;;2.90;1.20;;;10.00;99.90;;;;;;5093916;28;20235;-78
2023/12/30 04:22:44;;;;;;;4.53;1.50;;;10.00;99.90;;;;;;5093354;28;20231;-78
2023/12/30 04:25:12;;;;;;;1.42;0.90;;;10.00;99.90;;;;;;5094146;28;20223;-78
2023/12/30 04:27:39;;;;;;;1.40;0.93;;;10.00;99.90;;;;;;5093582;28;20231;-78
2023/12/30 04:30:07;;;;;;;1.40;1.13;;;10.00;99.90;;;;;;5094658;28;20223;-79
2023/12/30 04:32:35;;;;;;;1.20;1.00;;;9.90;99.90;;;;;;5092894;28;20243;-78
2023/12/30 04:35:03;;;;;;;2.40;0.90;;;9.90;99.90;;;;;;5093750;28;20233;-78
2023/12/30 04:37:30;;;;;;;0.80;0.80;;;10.00;99.90;;;;;;5093668;28;20306;-84
2023/12/30 04:39:57;;;;;;;2.55;1.40;;;10.00;99.90;;;;;;5083529;28;20219;-78
2023/12/30 04:42:28;;;;;;;1.52;1.15;;;9.90;99.90;;;;;;5093579;28;20223;-85
2023/12/30 04:44:55;;;;;;;2.13;1.20;;;10.00;99.90;;;;;;5093440;28;20719;-86
2023/12/30 04:47:21;;;;;;;1.20;0.90;;;9.90;99.90;;;;;;5093935;28;20227;-78
2023/12/30 04:49:48;;;;;;;2.50;1.70;;;9.90;99.90;;;;;;5092688;28;20226;-86
2023/12/30 04:52:15;;;;;;;0.80;0.80;;;9.90;99.90;;;;;;5092811;28;20231;-86
2023/12/30 04:54:43;;;;;;;1.80;0.85;;;9.90;99.90;;;;;;5093047;28;20223;-85
2023/12/30 04:57:10;;;;;;;1.20;1.00;;;9.90;99.90;;;;;;5093563;28;20223;-78
2023/12/30 04:59:38;;;;;;;1.15;0.85;;;9.90;99.90;;;;;;5093027;28;20587;-78
2023/12/30 05:02:05;;;;;;;1.70;1.20;;;9.90;99.90;;;;;;5093143;28;20654;-78
2023/12/30 05:04:32;;;;;;;1.15;0.77;;;9.90;99.90;;;;;;5093047;28;20220;-85
2023/12/30 05:06:59;;;;;;;1.13;0.60;;;9.90;99.90;;;;;;5093411;28;20653;-85
2023/12/30 05:09:26;;;;;;;1.50;0.93;;;9.80;99.90;;;;;;5093296;28;20223;-85
2023/12/30 05:11:54;;;;;;;1.85;1.20;;;9.80;99.90;;;;;;5092818;28;20223;-85
2023/12/30 05:14:21;;;;;;;2.45;1.08;;;9.80;99.90;;;;;;5093337;28;20219;-78
2023/12/30 05:16:50;;;;;;;2.92;1.13;;;9.80;99.90;;;;;;5092552;28;20589;-78
2023/12/30 05:19:17;;;;;;;3.30;1.00;;;9.80;99.90;;;;;;5093491;28;20588;-86
2023/12/30 05:21:44;;;;;;;2.60;1.48;;;9.80;99.90;;;;;;5092690;28;20227;-78
2023/12/30 05:24:11;;;;;;;1.90;1.50;;;9.90;99.90;;;;;;5093224;28;20254;-78
2023/12/30 05:26:38;;;;;;;1.30;0.80;;;9.90;99.90;;;;;;5092640;28;20215;-79
2023/12/30 05:29:05;;;;;;;2.28;1.00;;;9.80;99.90;;;;;;5093907;28;20245;-86
2023/12/30 05:31:32;;;;;;;1.30;1.20;;;9.80;99.90;;;;;;5094964;28;20232;-86
2023/12/30 05:34:00;;;;;;;1.60;1.50;;;9.80;99.90;;;;;;5093109;28;20215;-85
2023/12/30 05:36:27;;;;;;;1.05;0.93;;;9.70;99.90;;;;;;5093497;28;20602;-85
2023/12/30 05:38:54;;;;;;;2.80;1.45;;;9.80;99.90;;;;;;5092416;28;20284;-86
2023/12/30 05:41:25;;;;;;;1.75;1.10;;;9.70;99.90;;;;;;5093459;28;20219;-78
2023/12/30 05:43:52;;;;;;;1.27;1.10;;;9.70;99.90;;;;;;5092852;28;20227;-85
2023/12/30 05:46:19;;;;;;;1.30;1.00;;;9.80;99.90;;;;;;5092996;28;20231;-78
2023/12/30 05:48:45;;;;;;;1.88;1.02;;;9.70;99.90;;;;;;5092702;28;20223;-86
2023/12/30 05:51:14;;;;;;;2.22;1.30;;;9.70;99.90;;;;;;5093228;28;20218;-78
2023/12/30 05:53:42;;;;;;;1.77;1.40;;;9.80;99.90;;;;;;5092329;28;20235;-85
2023/12/30 05:56:09;;;;;;;3.42;1.10;;;9.80;99.90;;;;;;5093141;28;20249;-86
2023/12/30 05:58:37;;;;;;;1.25;0.90;;;9.80;99.90;;;;;;5093020;28;20284;-85
2023/12/30 06:01:05;;;;;;;1.38;1.23;;;9.90;99.90;;;;;;5095987;28;20219;-86
2023/12/30 06:03:35;;;;;;;2.17;1.30;;;9.80;99.90;;;;;;5096750;28;20224;-85
2023/12/30 06:06:03;;;;;;;1.35;1.00;;;9.80;99.90;;;;;;5096200;28;20539;-78
2023/12/30 06:08:32;;;;;;;1.20;0.88;;;9.80;99.90;;;;;;5096610;28;20258;-78
2023/12/30 06:10:59;;;;;;;2.75;1.48;;;9.80;99.90;;;;;;5096134;28;20230;-78
2023/12/30 06:13:26;;;;;;;2.30;1.00;;;9.70;99.90;;;;;;5096297;28;20231;-78
2023/12/30 06:15:56;;;;;;;2.25;1.08;;;9.80;99.90;;;;;;5096109;28;20246;-78
2023/12/30 06:18:26;;;;;;;1.08;0.98;;;9.70;99.90;;;;;;5097188;28;20310;-85
2023/12/30 06:20:53;;;;;;;1.10;0.70;;;9.70;99.90;;;;;;5097389;28;20231;-78
2023/12/30 06:23:20;;;;;;;1.33;1.10;;;9.60;99.90;;;;;;5096279;28;20228;-78
2023/12/30 06:25:48;;;;;;;3.80;2.00;;;9.60;99.90;;;;;;5095615;28;20223;-79
2023/12/30 06:28:15;;;;;;;4.38;1.60;;;9.50;99.90;;;;;;5110469;28;20223;-86
2023/12/30 06:30:54;;;;;;;1.70;1.17;;;9.50;99.90;;;;;;5105983;28;20227;-79
2023/12/30 06:33:24;;;;;;;1.75;0.88;;;9.50;99.90;;;;;;5095560;28;20231;-78
2023/12/30 06:35:52;;;;;;;1.52;1.10;;;9.40;99.90;;;;;;5095469;28;20738;-78
2023/12/30 06:38:19;;;;;;;2.45;1.00;;;9.40;99.90;;;;;;5096255;28;20232;-78
2023/12/30 06:40:50;;;;;;;2.15;1.17;;;9.40;99.90;;;;;;5094687;28;20705;-78
2023/12/30 06:43:20;;;;;;;1.83;1.20;;;9.30;99.90;;;;;;5096123;28;20231;-78
2023/12/30 06:45:47;;;;;;;2.78;1.08;;;9.40;99.90;;;;;;5096259;28;20280;-78
2023/12/30 06:48:23;;;;;;;3.33;1.08;;;9.30;99.90;;;;;;5096573;28;20606;-86
2023/12/30 06:50:50;;;;;;;2.00;1.40;;;9.30;99.90;;;;;;5095825;28;20223;-85
2023/12/30 06:53:18;;;;;;;2.00;1.20;;;9.40;99.90;;;;;;5095880;28;20227;-86
2023/12/30 06:55:45;;;;;;;5.03;1.35;;;9.30;99.90;;;;;;5095859;28;20252;-78
2023/12/30 06:58:16;;;;;;;1.50;1.10;;;9.30;99.90;;;;;;5095376;28;20695;-78
2023/12/30 07:00:46;;;;;;;1.85;1.50;;;9.30;99.90;;;;;;5095808;28;20227;-78
2023/12/30 07:03:13;;;;;;;2.47;1.85;;;9.20;99.90;;;;;;5094814;28;20310;-78
2023/12/30 07:05:40;;;;;;;3.97;1.67;;;9.30;99.90;;;;;;5094544;28;20219;-78
2023/12/30 07:08:10;;;;;;;3.92;1.50;;;9.20;99.90;;;;;;5095161;28;20219;-77
2023/12/30 07:10:37;;;;;;;4.70;1.60;;;9.10;99.90;;;;;;5094988;28;20223;-78
2023/12/30 07:13:04;;;;;;;3.17;2.15;;;9.20;99.90;;;;;;5094618;28;20251;-77
2023/12/30 07:15:32;;;;;;;3.83;2.30;;;9.20;99.90;;;;;;5095393;28;20234;-77
2023/12/30 07:18:00;;;;;;;1.67;1.00;;;9.20;99.90;;;;;;5094766;28;20227;-78
2023/12/30 07:20:27;;;;;;;1.73;1.20;;;9.20;99.90;;;;;;5094854;28;20227;-77
2023/12/30 07:22:54;;;;;;;1.23;1.13;;;9.10;99.90;;;;;;5094736;28;20223;-78
2023/12/30 07:25:22;;;;;;;3.55;1.25;;;9.10;99.90;;;;;;5094720;28;20227;-78
2023/12/30 07:27:49;;;;;;;3.35;1.30;;;9.20;99.90;;;;;;5095045;28;20306;-79
2023/12/30 07:30:16;;;;;;;3.45;1.25;;;9.10;99.90;;;;;;5094203;28;20262;-78
2023/12/30 07:32:44;;;;;;;1.70;1.35;;;9.20;99.90;;;;;;5093941;28;20677;-78
2023/12/30 07:35:10;;;;;;;3.10;1.80;;;9.20;99.90;;;;;;5094445;28;20563;-78
2023/12/30 07:37:37;;;;;;;4.20;1.43;;;9.10;99.90;;;;;;5095008;28;20219;-78
2023/12/30 07:40:06;;;;;;;3.65;1.55;;;9.20;99.90;;;;;;5094100;28;20473;-79
2023/12/30 07:42:33;;;;;;;2.72;1.60;;;9.20;99.90;;;;;;5094647;28;20262;-79
2023/12/30 07:45:00;;;;;;;1.25;1.13;;;9.20;99.90;;;;;;5094301;28;20227;-79
2023/12/30 07:47:27;;;;;;;2.25;1.20;;;9.10;99.90;;;;;;5094636;28;20234;-79
2023/12/30 07:49:55;;;;;;;3.20;1.23;;;9.10;99.90;;;;;;5094212;28;20227;-79
2023/12/30 07:52:22;;;;;;;3.45;1.30;;;9.10;99.90;;;;;;5094471;28;20265;-86
2023/12/30 07:54:49;;;;;;;2.00;1.30;;;9.10;99.90;;;;;;5094263;28;20227;-79
2023/12/30 07:57:17;;;;;;;1.67;1.20;;;9.10;99.90;;;;;;5094264;28;20229;-78
2023/12/30 07:59:43;;;;;;;3.50;1.30;;;9.10;99.90;;;;;;5094264;28;20250;-78
2023/12/30 08:02:10;;;;;;;2.15;1.75;;;9.00;99.90;;;;;;5093550;28;20700;-78
2023/12/30 08:04:37;;;;;;;1.48;1.38;;;9.00;99.90;;;;;;5094410;28;20234;-78
2023/12/30 08:07:06;;;;;;;1.80;1.52;;;9.00;99.90;;;;;;5093606;28;20695;-77
2023/12/30 08:09:33;;;;;;;3.03;1.20;;;9.00;99.90;;;;;;5094157;28;20223;-78
2023/12/30 08:12:00;;;;;;;4.30;1.70;;;9.00;99.90;;;;;;5093613;28;20227;-79
2023/12/30 08:14:27;;;;;;;2.00;1.80;;;9.00;99.90;;;;;;5094145;28;20292;-78
2023/12/30 08:16:58;;;;;;;1.67;1.20;;;9.00;99.90;;;;;;5094247;28;20215;-77
2023/12/30 08:30:06;;;;;;;1.50;1.17;;;9.00;99.90;;;;;;5058449;27;20559;-77
2023/12/30 08:32:32;;;;;;;3.90;1.52;;;9.60;99.90;;;;;;5050555;28;20225;-78
2023/12/30 08:35:02;;;;;;;3.58;1.38;;;9.60;99.90;;;;;;5050009;28;20238;-78
2023/12/30 08:37:29;;;;;;;1.40;1.00;;;9.50;99.90;;;;;;5050450;28;20524;-78
2023/12/30 08:39:56;;;;;;;1.40;1.20;;;9.40;99.90;;;;;;5050219;28;20236;-78
2023/12/30 08:42:24;;;;;;;1.75;1.50;;;9.40;99.90;;;;;;5049801;28;20227;-78
2023/12/30 08:44:50;;;;;;;2.00;1.27;;;9.40;99.90;;;;;;5050022;28;20225;-78
2023/12/30 08:47:19;;;;;;;5.60;2.65;;;9.30;99.90;;;;;;5049961;28;20228;-80
2023/12/30 08:49:46;;;;;;;4.63;2.35;;;9.30;99.90;;;;;;5049973;28;20742;-78
2023/12/30 08:52:17;;;;;;;4.47;1.92;;;9.20;99.90;;;;;;5041526;28;20229;-79
2023/12/30 08:54:52;;;;;;;4.10;1.30;;;9.20;99.90;;;;;;5062653;28;20669;-78
2023/12/30 08:57:19;;;;;;;2.58;1.77;;;9.20;99.90;;;;;;5049362;28;20759;-79
2023/12/30 08:59:48;;;;;;;5.22;1.90;;;9.20;99.90;;;;;;5049974;28;20220;-79
2023/12/30 09:02:15;;;;;;;4.65;1.58;;;9.10;99.90;;;;;;5050033;28;20618;-85
2023/12/30 09:04:48;;;;;;;4.30;1.50;;;9.20;99.90;;;;;;5050629;28;20229;-81
2023/12/30 09:07:15;;;;;;;2.20;1.40;;;9.20;99.90;;;;;;5047840;28;20231;-85
2023/12/30 09:09:42;;;;;;;8.02;1.30;;;9.20;99.90;;;;;;5049978;28;20229;-77
2023/12/30 09:12:09;;;;;;;2.03;1.40;;;9.20;99.90;;;;;;5049649;28;20259;-78
2023/12/30 09:14:36;;;;;;;5.20;1.95;;;9.20;99.90;;;;;;5048412;28;20216;-86
2023/12/30 09:17:06;;;;;;;2.97;2.05;;;9.20;99.90;;;;;;5049722;28;20704;-85
2023/12/30 09:19:33;;;;;;;5.50;2.78;;;9.20;99.90;;;;;;5047923;28;20229;-79
2023/12/30 09:22:02;;;;;;;9.55;2.55;;;9.20;99.90;;;;;;5049470;28;20229;-79
2023/12/30 09:24:29;;;;;;;3.65;2.10;;;9.20;99.90;;;;;;5048986;28;20375;-78
2023/12/30 09:26:56;;;;;;;3.03;1.80;;;9.20;99.90;;;;;;5048922;28;20279;-78
2023/12/30 09:29:23;;;;;;;3.15;1.60;;;9.20;99.90;;;;;;5044558;28;20588;-78
2023/12/30 09:31:50;;;;;;;2.13;1.90;;;9.20;99.90;;;;;;5036266;28;20221;-86
2023/12/30 09:34:17;;;;;;;4.88;1.63;;;9.20;99.90;;;;;;5035671;28;20222;-86
2023/12/30 09:36:44;;;;;;;2.83;1.95;;;9.20;99.90;;;;;;5035301;28;20665;-78
2023/12/30 09:39:12;;;;;;;2.33;1.40;;;9.20;99.90;;;;;;5036062;28;20244;-86
2023/12/30 09:41:41;;;;;;;2.20;1.75;;;9.30;99.90;;;;;;5035427;28;20217;-86
2023/12/30 09:44:09;;;;;;;4.28;1.70;;;9.30;99.90;;;;;;5035833;28;20218;-86
2023/12/30 09:46:41;;;;;;;5.55;1.75;;;9.30;99.90;;;;;;5035374;28;20296;-86
2023/12/30 09:49:08;;;;;;;4.60;1.67;;;9.30;99.90;;;;;;5036251;28;20229;-79
2023/12/30 09:51:35;;;;;;;6.35;2.28;;;9.30;99.90;;;;;;5035354;28;20596;-79
2023/12/30 09:54:02;;;;;;;8.68;2.05;;;9.30;99.90;;;;;;5035780;28;20221;-86
2023/12/30 09:56:31;;;;;;;9.23;2.92;;;9.40;99.90;;;;;;5035096;28;20708;-78
2023/12/30 09:58:59;;;;;;;5.53;1.55;;;9.40;99.90;;;;;;5035247;28;20221;-79
2023/12/30 10:01:26;;;;;;;9.63;3.30;;;9.40;99.90;;;;;;5035624;28;20229;-86
2023/12/30 10:03:53;;;;;;;4.63;2.20;;;9.40;99.90;;;;;;5036304;28;20283;-78
2023/12/30 10:06:23;;;;;;;9.73;3.47;;;9.50;99.90;;;;;;5026410;28;20290;-85
2023/12/30 10:08:50;;;;;;;3.63;2.75;;;9.40;99.90;;;;;;5050428;28;20668;-79
2023/12/30 10:11:23;;;;;;;4.32;2.60;;;9.50;99.90;;;;;;5035514;28;20225;-78
2023/12/30 10:13:53;;;;;;;8.07;3.58;;;9.50;99.90;;;;;;5037681;28;20268;-79
2023/12/30 10:16:20;;;;;;;8.95;2.80;;;9.50;99.90;;;;;;5033659;28;20222;-78
2023/12/30 10:18:48;;;;;;;3.72;1.95;;;9.50;99.90;;;;;;5035230;28;20225;-84
2023/12/30 10:21:18;;;;;;;8.77;3.13;;;9.60;99.90;;;;;;5036649;28;20228;-86
2023/12/30 10:23:48;;;;;;;6.03;3.05;;;9.60;99.90;;;;;;5035403;28;20367;-86
2023/12/30 10:26:15;;;;;;;8.00;2.85;;;9.60;99.90;;;;;;5036486;28;20559;-86
2023/12/30 10:28:44;;;;;;;5.03;3.22;;;9.50;99.90;;;;;;5035729;28;20294;-78
2023/12/30 10:31:18;;;;;;;11.75;2.80;;;9.50;99.90;;;;;;5043401;28;20621;-78
2023/12/30 10:33:57;;;;;;;2.00;1.60;;;9.50;99.90;;;;;;5036812;28;20225;-78
2023/12/30 10:36:25;;;;;;;4.13;1.75;;;9.60;99.90;;;;;;5036549;28;20232;-78
2023/12/30 10:38:54;;;;;;;6.97;2.55;;;9.60;99.90;;;;;;5039645;28;20228;-81
2023/12/30 10:41:21;;;;;;;6.25;2.10;;;9.60;99.90;;;;;;5036583;28;20229;-79
2023/12/30 10:43:48;;;;;;;3.70;1.65;;;9.60;99.90;;;;;;5037840;28;20232;-80
2023/12/30 10:46:21;;;;;;;3.67;2.65;;;9.70;99.90;;;;;;5037371;28;20308;-79
2023/12/30 10:48:56;;;;;;;2.40;1.67;;;9.70;99.90;;;;;;5037550;28;20228;-79
2023/12/30 10:51:26;;;;;;;4.90;2.75;;;9.80;99.90;;;;;;5032300;28;20225;-85
2023/12/30 10:54:05;;;;;;;5.15;2.20;;;9.80;99.90;;;;;;5036272;28;20690;-86
2023/12/30 10:56:40;;;;;;;2.45;1.83;;;9.80;99.90;;;;;;5034634;28;20224;-85
2023/12/30 10:59:08;;;;;;;5.93;2.15;;;9.80;99.90;;;;;;5034366;28;20247;-84
2023/12/30 11:01:41;;;;;;;3.60;1.85;;;9.80;99.90;;;;;;5034403;28;20225;-85
2023/12/30 11:04:11;;;;;;;3.72;1.90;;;9.80;99.90;;;;;;5034535;28;20233;-86
2023/12/30 11:06:47;;;;;;;4.35;1.98;;;9.80;99.90;;;;;;5033839;28;20229;-78
2023/12/30 11:09:14;;;;;;;7.70;2.50;;;9.90;99.90;;;;;;5034446;28;20287;-86
2023/12/30 11:11:51;;;;;;;3.90;2.55;;;9.80;99.90;;;;;;5033824;28;20229;-86
2023/12/30 11:14:18;;;;;;;6.03;1.85;;;9.90;99.90;;;;;;5033956;28;20221;-79
2023/12/30 11:16:51;;;;;;;2.00;1.63;;;9.90;99.90;;;;;;5033882;28;20312;-78
2023/12/30 11:19:28;;;;;;;4.55;2.13;;;9.90;99.90;;;;;;5035515;28;20229;-78
2023/12/30 11:21:56;;;;;;;5.15;1.75;;;9.90;99.90;;;;;;5035591;28;20225;-86
2023/12/30 11:24:23;;;;;;;5.10;2.22;;;9.90;99.90;;;;;;5033764;28;20555;-86
2023/12/30 11:26:56;;;;;;;2.70;1.85;;;9.90;99.90;;;;;;5034906;28;20221;-86
2023/12/30 11:29:25;;;;;;;6.40;2.47;;;9.90;99.90;;;;;;5033581;28;20570;-86
2023/12/30 11:31:55;;;;;;;3.10;1.55;;;10.00;99.90;;;;;;5034090;28;20322;-78
2023/12/30 11:34:24;;;;;;;5.78;2.25;;;10.00;99.90;;;;;;5033297;28;20540;-79
2023/12/30 11:36:52;;;;;;;4.45;2.47;;;10.10;99.90;;;;;;5033940;28;20287;-78
2023/12/30 11:39:25;;;;;;;9.80;2.42;;;10.00;99.90;;;;;;5033732;28;20240;-78
2023/12/30 11:41:53;;;;;;;4.93;3.75;;;10.00;99.90;;;;;;5032484;28;20259;-86
2023/12/30 11:44:21;;;;;;;5.45;2.97;;;10.00;99.90;;;;;;5036234;28;20225;-86
2023/12/30 11:46:48;;;;;;;6.25;3.90;;;10.00;99.90;;;;;;5036337;28;20707;-86
2023/12/30 11:49:22;;;;;;;5.63;4.20;;;10.00;99.90;;;;;;5035021;28;20224;-85
2023/12/30 11:51:49;;;;;;;6.90;2.80;;;10.10;99.90;;;;;;5035969;28;20239;-86
2023/12/30 11:54:17;;;;;;;3.33;2.83;;;10.10;99.90;;;;;;5034140;28;20235;-85
2023/12/30 11:56:47;;;;;;;4.82;2.85;;;10.10;99.90;;;;;;5041236;28;20225;-79
2023/12/30 11:59:14;;;;;;;6.20;2.80;;;10.10;99.90;;;;;;5032966;28;20283;-79
2023/12/30 12:01:41;;;;;;;5.00;4.22;;;10.20;99.90;;;;;;5033638;28;20287;-86
2023/12/30 12:04:08;;;;;;;5.60;2.85;;;10.20;99.90;;;;;;5035729;28;20661;-77
2023/12/30 12:06:38;;;;;;;6.10;2.65;;;10.20;99.90;;;;;;5034242;28;20259;-86
2023/12/30 12:09:08;;;;;;;3.30;2.92;;;10.20;99.90;;;;;;5033589;28;20279;-79
2023/12/30 12:11:35;;;;;;;4.85;2.30;;;10.20;99.90;;;;;;5034891;28;20225;-85
2023/12/30 12:14:02;;;;;;;3.75;1.90;;;10.20;99.90;;;;;;5034570;28;20221;-78
2023/12/30 12:16:32;;;;;;;2.97;1.92;;;10.20;99.90;;;;;;5033235;28;20264;-79
2023/12/30 12:19:04;;;;;;;2.85;1.83;;;10.20;99.90;;;;;;5030953;28;20221;-79
2023/12/30 12:21:31;;;;;;;4.10;2.38;;;10.20;99.90;;;;;;5033249;28;20229;-78
2023/12/30 12:24:00;;;;;;;4.63;1.60;;;10.20;99.90;;;;;;5033242;28;20304;-80
2023/12/30 12:26:28;;;;;;;3.17;2.03;;;10.20;99.90;;;;;;5033488;28;20703;-85
2023/12/30 12:28:55;;;;;;;3.13;1.92;;;10.20;99.90;;;;;;5033457;28;20279;-85
2023/12/30 12:31:22;;;;;;;6.10;2.70;;;10.20;99.90;;;;;;5033789;28;20217;-85
2023/12/30 12:33:51;;;;;;;6.22;2.28;;;10.20;99.90;;;;;;5025307;28;20237;-78
2023/12/30 12:36:19;;;;;;;5.57;2.22;;;10.20;99.90;;;;;;5047092;28;20541;-85
2023/12/30 12:38:47;;;;;;;6.07;3.35;;;10.20;99.90;;;;;;5038909;28;20676;-78
2023/12/30 12:41:16;;;;;;;7.50;2.53;;;10.10;99.90;;;;;;5033045;28;20224;-86
2023/12/30 12:43:42;;;;;;;6.07;2.63;;;10.20;99.90;;;;;;5033031;28;20592;-84
2023/12/30 12:46:11;;;;;;;3.38;2.25;;;10.20;99.90;;;;;;5033678;28;20247;-85
2023/12/30 12:48:38;;;;;;;4.22;2.70;;;10.20;99.90;;;;;;5032960;28;20737;-78
2023/12/30 12:51:06;;;;;;;2.92;1.75;;;10.20;99.90;;;;;;5033104;28;20232;-78
2023/12/30 12:53:33;;;;;;;5.63;1.85;;;10.20;99.90;;;;;;5032872;28;20233;-78
2023/12/30 12:56:00;;;;;;;3.50;2.10;;;10.20;99.90;;;;;;5032072;28;20225;-78
2023/12/30 12:58:32;;;;;;;5.32;2.72;;;10.20;99.90;;;;;;5033665;28;20621;-85
2023/12/30 13:01:03;;;;;;;6.40;2.92;;;10.20;99.90;;;;;;5033923;28;20311;-85
2023/12/30 13:03:32;;;;;;;4.35;2.67;;;10.20;99.90;;;;;;5033356;28;20677;-78
2023/12/30 13:05:59;;;;;;;17.98;8.25;;;10.30;99.90;;;;;;5027293;28;20221;-85
2023/12/30 13:08:29;;;;;;;8.68;5.82;;;10.30;99.90;;;;;;5038103;28;20217;-86